sensor_id;sensor_type;location;lat;lon;timestamp;P1;durP1;ratioP1;P2;durP2;ratioP2
1775;SDS011;885;42.626;23.200;2022-07-04T00:01:19;0.70;;;0.60;;
1775;SDS011;885;42.626;23.200;2022-07-04T00:03:47;0.80;;;0.60;;
1775;SDS011;885;42.626;23.200;2022-07-04T00:06:14;0.80;;;0.60;;
1775;SDS011;885;42.626;23.200;2022-07-04T00:08:40;0.80;;;0.60;;
1775;SDS011;885;42.626;23.200;2022-07-04T00:11:07;0.80;;;0.60;;
1775;SDS011;885;42.626;23.200;2022-07-04T00:13:34;0.80;;;0.60;;
1775;SDS011;885;42.626;23.200;2022-07-04T00:16:01;0.80;;;0.60;;
1775;SDS011;885;42.626;23.200;2022-07-04T00:18:30;0.80;;;0.60;;
1775;SDS011;885;42.626;23.200;2022-07-04T00:20:58;0.80;;;0.60;;
1775;SDS011;885;42.626;23.200;2022-07-04T00:23:25;0.80;;;0.60;;
1775;SDS011;885;42.626;23.200;2022-07-04T00:25:52;0.80;;;0.60;;
1775;SDS011;885;42.626;23.200;2022-07-04T00:28:18;1.03;;;0.93;;
1775;SDS011;885;42.626;23.200;2022-07-04T00:30:45;1.57;;;1.47;;
1775;SDS011;885;42.626;23.200;2022-07-04T00:33:12;0.80;;;0.60;;
1775;SDS011;885;42.626;23.200;2022-07-04T00:35:39;0.80;;;0.60;;
1775;SDS011;885;42.626;23.200;2022-07-04T00:38:08;0.80;;;0.60;;
1775;SDS011;885;42.626;23.200;2022-07-04T00:40:34;0.80;;;0.60;;
1775;SDS011;885;42.626;23.200;2022-07-04T00:43:01;0.80;;;0.60;;
1775;SDS011;885;42.626;23.200;2022-07-04T00:45:29;0.80;;;0.60;;
1775;SDS011;885;42.626;23.200;2022-07-04T00:47:56;0.80;;;0.60;;
1775;SDS011;885;42.626;23.200;2022-07-04T00:50:23;0.80;;;0.60;;
1775;SDS011;885;42.626;23.200;2022-07-04T00:52:50;0.80;;;0.67;;
1775;SDS011;885;42.626;23.200;2022-07-04T00:55:20;0.80;;;0.60;;
1775;SDS011;885;42.626;23.200;2022-07-04T00:57:48;0.80;;;0.60;;
1775;SDS011;885;42.626;23.200;2022-07-04T01:00:15;0.80;;;0.60;;
1775;SDS011;885;42.626;23.200;2022-07-04T01:02:43;0.80;;;0.70;;
1775;SDS011;885;42.626;23.200;2022-07-04T01:05:11;0.80;;;0.60;;
1775;SDS011;885;42.626;23.200;2022-07-04T01:07:38;9.17;;;8.30;;
1775;SDS011;885;42.626;23.200;2022-07-04T01:10:06;5.97;;;0.80;;
1775;SDS011;885;42.626;23.200;2022-07-04T01:12:35;4.83;;;0.80;;
1775;SDS011;885;42.626;23.200;2022-07-04T01:15:02;0.73;;;0.60;;
1775;SDS011;885;42.626;23.200;2022-07-04T01:17:30;0.90;;;0.60;;
1775;SDS011;885;42.626;23.200;2022-07-04T01:19:57;10.93;;;9.50;;
1775;SDS011;885;42.626;23.200;2022-07-04T01:22:25;10.60;;;9.50;;
1775;SDS011;885;42.626;23.200;2022-07-04T01:24:52;10.43;;;9.33;;
1775;SDS011;885;42.626;23.200;2022-07-04T01:27:19;9.67;;;8.83;;
1775;SDS011;885;42.626;23.200;2022-07-04T01:29:46;10.30;;;9.30;;
1775;SDS011;885;42.626;23.200;2022-07-04T01:32:13;11.73;;;10.53;;
1775;SDS011;885;42.626;23.200;2022-07-04T01:34:39;9.57;;;8.63;;
1775;SDS011;885;42.626;23.200;2022-07-04T01:37:06;10.63;;;9.53;;
1775;SDS011;885;42.626;23.200;2022-07-04T01:39:35;9.80;;;8.80;;
1775;SDS011;885;42.626;23.200;2022-07-04T01:42:02;10.13;;;9.23;;
1775;SDS011;885;42.626;23.200;2022-07-04T01:44:29;9.80;;;8.90;;
1775;SDS011;885;42.626;23.200;2022-07-04T01:46:56;9.10;;;8.30;;
1775;SDS011;885;42.626;23.200;2022-07-04T01:49:23;11.10;;;10.00;;
1775;SDS011;885;42.626;23.200;2022-07-04T01:51:50;10.83;;;9.83;;
1775;SDS011;885;42.626;23.200;2022-07-04T01:54:18;11.77;;;10.67;;
1775;SDS011;885;42.626;23.200;2022-07-04T01:56:46;10.90;;;9.90;;
1775;SDS011;885;42.626;23.200;2022-07-04T01:59:13;11.67;;;10.57;;
1775;SDS011;885;42.626;23.200;2022-07-04T02:01:40;10.90;;;9.90;;
1775;SDS011;885;42.626;23.200;2022-07-04T02:04:06;11.67;;;10.30;;
1775;SDS011;885;42.626;23.200;2022-07-04T02:06:33;10.37;;;9.37;;
1775;SDS011;885;42.626;23.200;2022-07-04T02:09:01;11.33;;;10.00;;
1775;SDS011;885;42.626;23.200;2022-07-04T02:11:44;11.07;;;9.77;;
1775;SDS011;885;42.626;23.200;2022-07-04T02:14:31;11.80;;;10.63;;
1775;SDS011;885;42.626;23.200;2022-07-04T02:16:59;16.73;;;15.33;;
1775;SDS011;885;42.626;23.200;2022-07-04T02:19:26;15.30;;;10.90;;
1775;SDS011;885;42.626;23.200;2022-07-04T02:21:53;13.07;;;11.87;;
1775;SDS011;885;42.626;23.200;2022-07-04T02:24:19;11.33;;;10.23;;
1775;SDS011;885;42.626;23.200;2022-07-04T02:26:48;11.47;;;10.40;;
1775;SDS011;885;42.626;23.200;2022-07-04T02:29:15;10.77;;;9.77;;
1775;SDS011;885;42.626;23.200;2022-07-04T02:31:42;10.97;;;9.97;;
1775;SDS011;885;42.626;23.200;2022-07-04T02:34:09;11.40;;;10.30;;
1775;SDS011;885;42.626;23.200;2022-07-04T02:36:37;10.97;;;9.87;;
1775;SDS011;885;42.626;23.200;2022-07-04T02:39:04;11.43;;;9.13;;
1775;SDS011;885;42.626;23.200;2022-07-04T02:41:32;10.20;;;9.20;;
1775;SDS011;885;42.626;23.200;2022-07-04T02:44:00;10.47;;;9.50;;
1775;SDS011;885;42.626;23.200;2022-07-04T02:46:27;11.17;;;10.10;;
1775;SDS011;885;42.626;23.200;2022-07-04T02:48:57;11.73;;;10.60;;
1775;SDS011;885;42.626;23.200;2022-07-04T02:51:24;12.73;;;10.87;;
1775;SDS011;885;42.626;23.200;2022-07-04T02:53:50;11.40;;;10.30;;
1775;SDS011;885;42.626;23.200;2022-07-04T02:56:17;11.60;;;10.40;;
1775;SDS011;885;42.626;23.200;2022-07-04T02:58:44;12.63;;;11.53;;
1775;SDS011;885;42.626;23.200;2022-07-04T03:01:13;13.33;;;11.37;;
1775;SDS011;885;42.626;23.200;2022-07-04T03:03:39;12.07;;;10.97;;
1775;SDS011;885;42.626;23.200;2022-07-04T03:06:07;12.93;;;11.60;;
1775;SDS011;885;42.626;23.200;2022-07-04T03:08:35;11.13;;;10.13;;
1775;SDS011;885;42.626;23.200;2022-07-04T03:11:02;12.07;;;10.90;;
1775;SDS011;885;42.626;23.200;2022-07-04T03:13:29;12.40;;;10.70;;
1775;SDS011;885;42.626;23.200;2022-07-04T03:15:56;11.97;;;10.87;;
1775;SDS011;885;42.626;23.200;2022-07-04T03:18:25;10.80;;;9.70;;
1775;SDS011;885;42.626;23.200;2022-07-04T03:20:52;12.57;;;11.27;;
1775;SDS011;885;42.626;23.200;2022-07-04T03:23:18;10.63;;;9.53;;
1775;SDS011;885;42.626;23.200;2022-07-04T03:25:45;11.87;;;10.33;;
1775;SDS011;885;42.626;23.200;2022-07-04T03:28:12;11.60;;;9.10;;
1775;SDS011;885;42.626;23.200;2022-07-04T03:30:39;11.27;;;10.07;;
1775;SDS011;885;42.626;23.200;2022-07-04T03:33:06;12.40;;;11.20;;
1775;SDS011;885;42.626;23.200;2022-07-04T03:35:34;12.33;;;10.47;;
1775;SDS011;885;42.626;23.200;2022-07-04T03:38:01;11.87;;;10.40;;
1775;SDS011;885;42.626;23.200;2022-07-04T03:40:28;13.03;;;10.10;;
1775;SDS011;885;42.626;23.200;2022-07-04T03:42:56;11.20;;;10.03;;
1775;SDS011;885;42.626;23.200;2022-07-04T03:45:23;11.83;;;10.63;;
1775;SDS011;885;42.626;23.200;2022-07-04T03:47:50;11.90;;;10.90;;
1775;SDS011;885;42.626;23.200;2022-07-04T03:50:17;11.80;;;10.67;;
1775;SDS011;885;42.626;23.200;2022-07-04T03:52:45;11.90;;;10.40;;
1775;SDS011;885;42.626;23.200;2022-07-04T03:55:12;10.80;;;9.80;;
1775;SDS011;885;42.626;23.200;2022-07-04T03:57:39;10.50;;;9.60;;
1775;SDS011;885;42.626;23.200;2022-07-04T04:00:07;11.63;;;10.43;;
1775;SDS011;885;42.626;23.200;2022-07-04T04:02:35;11.17;;;10.07;;
1775;SDS011;885;42.626;23.200;2022-07-04T04:05:02;14.70;;;10.53;;
1775;SDS011;885;42.626;23.200;2022-07-04T04:07:54;9.90;;;9.00;;
1775;SDS011;885;42.626;23.200;2022-07-04T04:10:21;10.47;;;9.47;;
1775;SDS011;885;42.626;23.200;2022-07-04T04:12:48;10.67;;;9.77;;
1775;SDS011;885;42.626;23.200;2022-07-04T04:15:15;10.77;;;9.80;;
1775;SDS011;885;42.626;23.200;2022-07-04T04:17:42;11.93;;;10.83;;
1775;SDS011;885;42.626;23.200;2022-07-04T04:20:09;20.30;;;11.33;;
1775;SDS011;885;42.626;23.200;2022-07-04T04:22:36;12.57;;;11.37;;
1775;SDS011;885;42.626;23.200;2022-07-04T04:25:04;11.23;;;10.23;;
1775;SDS011;885;42.626;23.200;2022-07-04T04:27:32;11.90;;;7.63;;
1775;SDS011;885;42.626;23.200;2022-07-04T04:29:59;10.63;;;9.60;;
1775;SDS011;885;42.626;23.200;2022-07-04T04:32:26;10.93;;;9.90;;
1775;SDS011;885;42.626;23.200;2022-07-04T04:34:52;12.40;;;11.20;;
1775;SDS011;885;42.626;23.200;2022-07-04T04:37:19;11.57;;;10.17;;
1775;SDS011;885;42.626;23.200;2022-07-04T04:39:46;11.40;;;10.30;;
1775;SDS011;885;42.626;23.200;2022-07-04T04:42:14;11.50;;;10.60;;
1775;SDS011;885;42.626;23.200;2022-07-04T04:44:41;11.73;;;10.53;;
1775;SDS011;885;42.626;23.200;2022-07-04T04:47:08;12.67;;;10.23;;
1775;SDS011;885;42.626;23.200;2022-07-04T04:49:35;12.50;;;11.40;;
1775;SDS011;885;42.626;23.200;2022-07-04T04:52:02;12.53;;;11.43;;
1775;SDS011;885;42.626;23.200;2022-07-04T04:54:30;12.43;;;10.67;;
1775;SDS011;885;42.626;23.200;2022-07-04T04:56:58;13.70;;;10.73;;
1775;SDS011;885;42.626;23.200;2022-07-04T04:59:26;11.70;;;10.50;;
1775;SDS011;885;42.626;23.200;2022-07-04T05:01:54;11.90;;;10.83;;
1775;SDS011;885;42.626;23.200;2022-07-04T05:04:21;10.90;;;9.90;;
1775;SDS011;885;42.626;23.200;2022-07-04T05:06:48;11.97;;;10.87;;
1775;SDS011;885;42.626;23.200;2022-07-04T05:09:15;11.63;;;10.00;;
1775;SDS011;885;42.626;23.200;2022-07-04T05:11:41;10.23;;;9.23;;
1775;SDS011;885;42.626;23.200;2022-07-04T05:14:08;11.07;;;10.07;;
1775;SDS011;885;42.626;23.200;2022-07-04T05:16:37;10.87;;;9.90;;
1775;SDS011;885;42.626;23.200;2022-07-04T05:19:03;11.23;;;10.30;;
1775;SDS011;885;42.626;23.200;2022-07-04T05:21:30;11.83;;;10.63;;
1775;SDS011;885;42.626;23.200;2022-07-04T05:23:57;10.23;;;9.17;;
1775;SDS011;885;42.626;23.200;2022-07-04T05:26:24;10.67;;;9.57;;
1775;SDS011;885;42.626;23.200;2022-07-04T05:28:52;10.40;;;9.50;;
1775;SDS011;885;42.626;23.200;2022-07-04T05:31:20;11.20;;;10.20;;
1775;SDS011;885;42.626;23.200;2022-07-04T05:33:50;10.13;;;9.23;;
1775;SDS011;885;42.626;23.200;2022-07-04T05:36:18;10.80;;;9.80;;
1775;SDS011;885;42.626;23.200;2022-07-04T05:38:45;10.50;;;9.40;;
1775;SDS011;885;42.626;23.200;2022-07-04T05:41:12;10.30;;;9.30;;
1775;SDS011;885;42.626;23.200;2022-07-04T05:43:39;11.13;;;10.23;;
1775;SDS011;885;42.626;23.200;2022-07-04T05:46:06;12.33;;;11.17;;
1775;SDS011;885;42.626;23.200;2022-07-04T05:48:33;10.47;;;9.43;;
1775;SDS011;885;42.626;23.200;2022-07-04T05:51:01;9.33;;;8.47;;
1775;SDS011;885;42.626;23.200;2022-07-04T05:53:29;10.60;;;9.60;;
1775;SDS011;885;42.626;23.200;2022-07-04T05:55:56;7.90;;;6.60;;
1775;SDS011;885;42.626;23.200;2022-07-04T05:58:23;8.37;;;7.57;;
1775;SDS011;885;42.626;23.200;2022-07-04T06:00:49;7.73;;;7.03;;
1775;SDS011;885;42.626;23.200;2022-07-04T06:03:21;7.80;;;7.10;;
1775;SDS011;885;42.626;23.200;2022-07-04T06:05:48;7.50;;;6.80;;
1775;SDS011;885;42.626;23.200;2022-07-04T06:08:16;7.87;;;6.77;;
1775;SDS011;885;42.626;23.200;2022-07-04T06:10:43;6.93;;;5.20;;
1775;SDS011;885;42.626;23.200;2022-07-04T06:13:10;5.37;;;4.87;;
1775;SDS011;885;42.626;23.200;2022-07-04T06:15:37;4.87;;;3.53;;
1775;SDS011;885;42.626;23.200;2022-07-04T06:18:04;5.60;;;4.73;;
1775;SDS011;885;42.626;23.200;2022-07-04T06:20:31;5.50;;;3.67;;
1775;SDS011;885;42.626;23.200;2022-07-04T06:22:58;9.67;;;4.10;;
1775;SDS011;885;42.626;23.200;2022-07-04T06:25:26;7.43;;;4.23;;
1775;SDS011;885;42.626;23.200;2022-07-04T06:27:53;5.23;;;4.17;;
1775;SDS011;885;42.626;23.200;2022-07-04T06:30:19;7.40;;;4.33;;
1775;SDS011;885;42.626;23.200;2022-07-04T06:32:47;4.97;;;3.47;;
1775;SDS011;885;42.626;23.200;2022-07-04T06:35:17;3.63;;;2.83;;
1775;SDS011;885;42.626;23.200;2022-07-04T06:38:03;4.97;;;3.77;;
1775;SDS011;885;42.626;23.200;2022-07-04T06:40:31;5.57;;;3.73;;
1775;SDS011;885;42.626;23.200;2022-07-04T06:42:58;3.80;;;3.10;;
1775;SDS011;885;42.626;23.200;2022-07-04T06:45:25;7.90;;;5.27;;
1775;SDS011;885;42.626;23.200;2022-07-04T06:47:52;8.40;;;6.07;;
1775;SDS011;885;42.626;23.200;2022-07-04T06:50:19;6.37;;;5.50;;
1775;SDS011;885;42.626;23.200;2022-07-04T06:52:46;7.13;;;6.10;;
1775;SDS011;885;42.626;23.200;2022-07-04T06:55:13;7.27;;;5.73;;
1775;SDS011;885;42.626;23.200;2022-07-04T06:57:44;9.03;;;5.83;;
1775;SDS011;885;42.626;23.200;2022-07-04T07:00:11;6.80;;;6.20;;
1775;SDS011;885;42.626;23.200;2022-07-04T07:02:38;7.27;;;6.53;;
1775;SDS011;885;42.626;23.200;2022-07-04T07:05:06;7.00;;;6.30;;
1775;SDS011;885;42.626;23.200;2022-07-04T07:07:33;7.73;;;6.27;;
1775;SDS011;885;42.626;23.200;2022-07-04T07:10:00;12.23;;;6.77;;
1775;SDS011;885;42.626;23.200;2022-07-04T07:12:28;7.73;;;6.67;;
1775;SDS011;885;42.626;23.200;2022-07-04T07:14:56;7.67;;;6.80;;
1775;SDS011;885;42.626;23.200;2022-07-04T07:17:23;8.13;;;7.33;;
1775;SDS011;885;42.626;23.200;2022-07-04T07:19:50;7.83;;;7.10;;
1775;SDS011;885;42.626;23.200;2022-07-04T07:22:17;9.07;;;7.50;;
1775;SDS011;885;42.626;23.200;2022-07-04T07:24:44;7.73;;;6.43;;
1775;SDS011;885;42.626;23.200;2022-07-04T07:27:11;12.70;;;6.87;;
1775;SDS011;885;42.626;23.200;2022-07-04T07:29:38;8.73;;;6.03;;
1775;SDS011;885;42.626;23.200;2022-07-04T07:32:07;7.47;;;6.77;;
1775;SDS011;885;42.626;23.200;2022-07-04T07:34:34;7.90;;;6.47;;
1775;SDS011;885;42.626;23.200;2022-07-04T07:37:01;7.07;;;6.47;;
1775;SDS011;885;42.626;23.200;2022-07-04T07:39:29;12.97;;;7.43;;
1775;SDS011;885;42.626;23.200;2022-07-04T07:41:56;8.30;;;6.43;;
1775;SDS011;885;42.626;23.200;2022-07-04T07:44:23;8.67;;;6.40;;
1775;SDS011;885;42.626;23.200;2022-07-04T07:46:50;7.57;;;6.17;;
1775;SDS011;885;42.626;23.200;2022-07-04T07:49:18;7.00;;;6.27;;
1775;SDS011;885;42.626;23.200;2022-07-04T07:51:45;13.40;;;7.27;;
1775;SDS011;885;42.626;23.200;2022-07-04T07:54:11;9.30;;;6.83;;
1775;SDS011;885;42.626;23.200;2022-07-04T07:56:39;9.40;;;6.43;;
1775;SDS011;885;42.626;23.200;2022-07-04T07:59:05;9.33;;;6.87;;
1775;SDS011;885;42.626;23.200;2022-07-04T08:01:32;8.87;;;6.27;;
1775;SDS011;885;42.626;23.200;2022-07-04T08:03:59;11.50;;;6.77;;
1775;SDS011;885;42.626;23.200;2022-07-04T08:06:44;9.00;;;6.60;;
1775;SDS011;885;42.626;23.200;2022-07-04T08:09:11;9.63;;;6.50;;
1775;SDS011;885;42.626;23.200;2022-07-04T08:11:39;14.73;;;7.10;;
1775;SDS011;885;42.626;23.200;2022-07-04T08:14:06;8.70;;;6.20;;
1775;SDS011;885;42.626;23.200;2022-07-04T08:16:33;7.97;;;7.17;;
1775;SDS011;885;42.626;23.200;2022-07-04T08:19:00;7.83;;;6.13;;
1775;SDS011;885;42.626;23.200;2022-07-04T08:21:27;6.20;;;5.60;;
1775;SDS011;885;42.626;23.200;2022-07-04T08:23:55;8.10;;;7.13;;
1775;SDS011;885;42.626;23.200;2022-07-04T08:26:22;6.47;;;5.87;;
1775;SDS011;885;42.626;23.200;2022-07-04T08:28:49;7.10;;;5.67;;
1775;SDS011;885;42.626;23.200;2022-07-04T08:31:17;6.60;;;5.90;;
1775;SDS011;885;42.626;23.200;2022-07-04T08:33:44;9.77;;;6.10;;
1775;SDS011;885;42.626;23.200;2022-07-04T08:36:12;7.40;;;6.10;;
1775;SDS011;885;42.626;23.200;2022-07-04T08:38:38;8.57;;;5.77;;
1775;SDS011;885;42.626;23.200;2022-07-04T08:41:07;7.63;;;6.77;;
1775;SDS011;885;42.626;23.200;2022-07-04T08:43:33;6.70;;;5.30;;
1775;SDS011;885;42.626;23.200;2022-07-04T08:46:05;7.60;;;6.17;;
1775;SDS011;885;42.626;23.200;2022-07-04T08:48:33;9.33;;;6.07;;
1775;SDS011;885;42.626;23.200;2022-07-04T08:51:02;6.40;;;5.80;;
1775;SDS011;885;42.626;23.200;2022-07-04T08:53:36;10.20;;;5.87;;
1775;SDS011;885;42.626;23.200;2022-07-04T08:56:05;7.10;;;5.93;;
1775;SDS011;885;42.626;23.200;2022-07-04T08:58:52;8.03;;;6.60;;
1775;SDS011;885;42.626;23.200;2022-07-04T09:01:21;12.27;;;7.07;;
1775;SDS011;885;42.626;23.200;2022-07-04T09:03:50;10.10;;;6.80;;
1775;SDS011;885;42.626;23.200;2022-07-04T09:06:17;6.73;;;6.13;;
1775;SDS011;885;42.626;23.200;2022-07-04T09:08:44;5.90;;;5.30;;
1775;SDS011;885;42.626;23.200;2022-07-04T09:11:12;7.00;;;6.30;;
1775;SDS011;885;42.626;23.200;2022-07-04T09:13:40;7.27;;;6.40;;
1775;SDS011;885;42.626;23.200;2022-07-04T09:16:06;8.37;;;6.60;;
1775;SDS011;885;42.626;23.200;2022-07-04T09:18:34;7.63;;;6.47;;
1775;SDS011;885;42.626;23.200;2022-07-04T09:21:04;7.43;;;6.77;;
1775;SDS011;885;42.626;23.200;2022-07-04T09:23:32;8.80;;;6.90;;
1775;SDS011;885;42.626;23.200;2022-07-04T09:26:07;7.07;;;6.43;;
1775;SDS011;885;42.626;23.200;2022-07-04T09:28:38;10.23;;;6.63;;
1775;SDS011;885;42.626;23.200;2022-07-04T09:31:16;9.10;;;8.20;;
1775;SDS011;885;42.626;23.200;2022-07-04T09:33:48;8.20;;;6.53;;
1775;SDS011;885;42.626;23.200;2022-07-04T09:36:20;8.33;;;6.93;;
1775;SDS011;885;42.626;23.200;2022-07-04T09:39:04;9.67;;;8.03;;
1775;SDS011;885;42.626;23.200;2022-07-04T09:41:50;7.83;;;7.10;;
1775;SDS011;885;42.626;23.200;2022-07-04T09:44:23;8.70;;;7.00;;
1775;SDS011;885;42.626;23.200;2022-07-04T09:46:50;9.10;;;6.80;;
1775;SDS011;885;42.626;23.200;2022-07-04T09:49:18;7.87;;;6.63;;
1775;SDS011;885;42.626;23.200;2022-07-04T09:51:46;9.30;;;7.23;;
1775;SDS011;885;42.626;23.200;2022-07-04T09:56:59;9.03;;;7.33;;
1775;SDS011;885;42.626;23.200;2022-07-04T09:59:30;8.03;;;7.17;;
1775;SDS011;885;42.626;23.200;2022-07-04T10:02:07;7.63;;;6.93;;
1775;SDS011;885;42.626;23.200;2022-07-04T10:04:46;8.00;;;7.30;;
1775;SDS011;885;42.626;23.200;2022-07-04T10:09:59;10.70;;;8.40;;
1775;SDS011;885;42.626;23.200;2022-07-04T10:12:26;7.20;;;6.63;;
1775;SDS011;885;42.626;23.200;2022-07-04T10:14:55;9.50;;;7.60;;
1775;SDS011;885;42.626;23.200;2022-07-04T10:17:22;7.40;;;6.80;;
1775;SDS011;885;42.626;23.200;2022-07-04T10:19:48;9.00;;;8.20;;
1775;SDS011;885;42.626;23.200;2022-07-04T10:22:17;8.57;;;7.77;;
1775;SDS011;885;42.626;23.200;2022-07-04T10:24:46;7.93;;;7.07;;
1775;SDS011;885;42.626;23.200;2022-07-04T10:27:13;9.97;;;8.00;;
1775;SDS011;885;42.626;23.200;2022-07-04T10:29:41;7.17;;;6.57;;
1775;SDS011;885;42.626;23.200;2022-07-04T10:32:09;7.30;;;6.70;;
1775;SDS011;885;42.626;23.200;2022-07-04T10:34:39;8.70;;;7.93;;
1775;SDS011;885;42.626;23.200;2022-07-04T10:37:06;7.60;;;6.83;;
1775;SDS011;885;42.626;23.200;2022-07-04T10:39:33;9.87;;;7.40;;
1775;SDS011;885;42.626;23.200;2022-07-04T10:42:00;7.37;;;6.53;;
1775;SDS011;885;42.626;23.200;2022-07-04T10:44:28;7.40;;;6.80;;
1775;SDS011;885;42.626;23.200;2022-07-04T10:47:02;7.93;;;7.23;;
1775;SDS011;885;42.626;23.200;2022-07-04T10:49:31;8.43;;;7.50;;
1775;SDS011;885;42.626;23.200;2022-07-04T10:52:10;7.50;;;6.90;;
1775;SDS011;885;42.626;23.200;2022-07-04T10:54:38;8.20;;;7.37;;
1775;SDS011;885;42.626;23.200;2022-07-04T10:57:11;7.63;;;6.70;;
1775;SDS011;885;42.626;23.200;2022-07-04T10:59:40;8.47;;;7.60;;
1775;SDS011;885;42.626;23.200;2022-07-04T11:05:06;8.70;;;7.90;;
1775;SDS011;885;42.626;23.200;2022-07-04T11:10:25;8.00;;;7.20;;
1775;SDS011;885;42.626;23.200;2022-07-04T11:18:29;7.97;;;7.27;;
1775;SDS011;885;42.626;23.200;2022-07-04T11:20:58;7.20;;;6.50;;
1775;SDS011;885;42.626;23.200;2022-07-04T11:23:24;8.00;;;7.30;;
1775;SDS011;885;42.626;23.200;2022-07-04T11:25:51;8.00;;;7.40;;
1775;SDS011;885;42.626;23.200;2022-07-04T11:28:22;8.40;;;7.70;;
1775;SDS011;885;42.626;23.200;2022-07-04T11:30:50;8.60;;;7.43;;
1775;SDS011;885;42.626;23.200;2022-07-04T11:33:18;8.10;;;7.30;;
1775;SDS011;885;42.626;23.200;2022-07-04T11:38:47;8.60;;;7.77;;
1775;SDS011;885;42.626;23.200;2022-07-04T11:41:16;8.50;;;7.70;;
1775;SDS011;885;42.626;23.200;2022-07-04T11:44:04;8.40;;;7.60;;
1775;SDS011;885;42.626;23.200;2022-07-04T11:46:50;7.83;;;7.13;;
1775;SDS011;885;42.626;23.200;2022-07-04T11:49:17;8.17;;;7.47;;
1775;SDS011;885;42.626;23.200;2022-07-04T11:51:46;13.33;;;8.40;;
1775;SDS011;885;42.626;23.200;2022-07-04T11:54:14;8.23;;;7.50;;
1775;SDS011;885;42.626;23.200;2022-07-04T11:56:41;8.37;;;7.57;;
1775;SDS011;885;42.626;23.200;2022-07-04T11:59:12;8.20;;;7.40;;
1775;SDS011;885;42.626;23.200;2022-07-04T12:01:40;7.80;;;7.10;;
1775;SDS011;885;42.626;23.200;2022-07-04T12:04:11;8.63;;;7.73;;
1775;SDS011;885;42.626;23.200;2022-07-04T12:06:42;9.67;;;7.40;;
1775;SDS011;885;42.626;23.200;2022-07-04T12:09:11;9.00;;;7.73;;
1775;SDS011;885;42.626;23.200;2022-07-04T12:11:51;13.40;;;7.50;;
1775;SDS011;885;42.626;23.200;2022-07-04T12:14:19;8.50;;;7.73;;
1775;SDS011;885;42.626;23.200;2022-07-04T12:16:46;8.37;;;7.57;;
1775;SDS011;885;42.626;23.200;2022-07-04T12:19:14;9.10;;;7.93;;
1775;SDS011;885;42.626;23.200;2022-07-04T12:21:42;8.67;;;7.27;;
1775;SDS011;885;42.626;23.200;2022-07-04T12:24:10;7.70;;;7.00;;
1775;SDS011;885;42.626;23.200;2022-07-04T12:26:45;7.77;;;6.73;;
1775;SDS011;885;42.626;23.200;2022-07-04T12:29:19;8.27;;;7.40;;
1775;SDS011;885;42.626;23.200;2022-07-04T12:31:50;8.73;;;7.83;;
1775;SDS011;885;42.626;23.200;2022-07-04T12:34:18;10.80;;;7.33;;
1775;SDS011;885;42.626;23.200;2022-07-04T12:36:49;7.90;;;7.20;;
1775;SDS011;885;42.626;23.200;2022-07-04T12:39:30;7.93;;;7.17;;
1775;SDS011;885;42.626;23.200;2022-07-04T12:42:05;8.47;;;7.67;;
1775;SDS011;885;42.626;23.200;2022-07-04T12:44:33;9.27;;;8.47;;
1775;SDS011;885;42.626;23.200;2022-07-04T12:47:00;8.47;;;7.80;;
1775;SDS011;885;42.626;23.200;2022-07-04T12:49:28;7.67;;;6.73;;
1775;SDS011;885;42.626;23.200;2022-07-04T12:52:03;8.23;;;7.40;;
1775;SDS011;885;42.626;23.200;2022-07-04T12:54:32;7.87;;;7.27;;
1775;SDS011;885;42.626;23.200;2022-07-04T12:57:03;8.17;;;7.37;;
1775;SDS011;885;42.626;23.200;2022-07-04T12:59:31;8.03;;;7.23;;
1775;SDS011;885;42.626;23.200;2022-07-04T13:01:59;8.30;;;7.07;;
1775;SDS011;885;42.626;23.200;2022-07-04T13:04:26;8.17;;;7.23;;
1775;SDS011;885;42.626;23.200;2022-07-04T13:06:53;7.60;;;7.00;;
1775;SDS011;885;42.626;23.200;2022-07-04T13:09:19;7.17;;;6.57;;
1775;SDS011;885;42.626;23.200;2022-07-04T13:11:47;10.60;;;7.63;;
1775;SDS011;885;42.626;23.200;2022-07-04T13:14:32;8.50;;;7.70;;
1775;SDS011;885;42.626;23.200;2022-07-04T13:16:58;7.97;;;7.20;;
1775;SDS011;885;42.626;23.200;2022-07-04T13:19:25;8.70;;;7.73;;
1775;SDS011;885;42.626;23.200;2022-07-04T13:21:52;8.47;;;7.60;;
1775;SDS011;885;42.626;23.200;2022-07-04T13:24:20;12.03;;;8.17;;
1775;SDS011;885;42.626;23.200;2022-07-04T13:26:48;8.70;;;8.00;;
1775;SDS011;885;42.626;23.200;2022-07-04T13:29:15;8.53;;;7.23;;
1775;SDS011;885;42.626;23.200;2022-07-04T13:31:42;8.70;;;7.90;;
1775;SDS011;885;42.626;23.200;2022-07-04T13:34:09;10.97;;;7.80;;
1775;SDS011;885;42.626;23.200;2022-07-04T13:36:36;8.43;;;7.83;;
1775;SDS011;885;42.626;23.200;2022-07-04T13:39:02;8.03;;;7.37;;
1775;SDS011;885;42.626;23.200;2022-07-04T13:41:30;7.30;;;6.70;;
1775;SDS011;885;42.626;23.200;2022-07-04T13:43:58;8.13;;;7.10;;
1775;SDS011;885;42.626;23.200;2022-07-04T13:46:25;8.20;;;7.40;;
1775;SDS011;885;42.626;23.200;2022-07-04T13:48:52;8.93;;;8.20;;
1775;SDS011;885;42.626;23.200;2022-07-04T13:51:19;7.80;;;7.10;;
1775;SDS011;885;42.626;23.200;2022-07-04T13:53:46;7.83;;;7.23;;
1775;SDS011;885;42.626;23.200;2022-07-04T13:56:13;8.10;;;7.50;;
1775;SDS011;885;42.626;23.200;2022-07-04T13:58:43;8.37;;;7.50;;
1775;SDS011;885;42.626;23.200;2022-07-04T14:01:12;9.57;;;7.33;;
1775;SDS011;885;42.626;23.200;2022-07-04T14:03:41;7.27;;;6.77;;
1775;SDS011;885;42.626;23.200;2022-07-04T14:06:08;8.27;;;7.20;;
1775;SDS011;885;42.626;23.200;2022-07-04T14:08:35;8.47;;;7.67;;
1775;SDS011;885;42.626;23.200;2022-07-04T14:11:02;8.57;;;7.77;;
1775;SDS011;885;42.626;23.200;2022-07-04T14:13:29;9.13;;;8.33;;
1775;SDS011;885;42.626;23.200;2022-07-04T14:15:56;8.30;;;7.70;;
1775;SDS011;885;42.626;23.200;2022-07-04T14:18:24;7.70;;;7.07;;
1775;SDS011;885;42.626;23.200;2022-07-04T14:20:51;7.90;;;7.20;;
1775;SDS011;885;42.626;23.200;2022-07-04T14:23:18;7.93;;;7.27;;
1775;SDS011;885;42.626;23.200;2022-07-04T14:26:05;9.07;;;8.27;;
1775;SDS011;885;42.626;23.200;2022-07-04T14:28:33;8.63;;;7.73;;
1775;SDS011;885;42.626;23.200;2022-07-04T14:31:00;8.57;;;7.63;;
1775;SDS011;885;42.626;23.200;2022-07-04T14:33:28;9.20;;;8.40;;
1775;SDS011;885;42.626;23.200;2022-07-04T14:35:55;7.43;;;6.83;;
1775;SDS011;885;42.626;23.200;2022-07-04T14:38:22;7.90;;;7.20;;
1775;SDS011;885;42.626;23.200;2022-07-04T14:40:49;8.83;;;7.10;;
1775;SDS011;885;42.626;23.200;2022-07-04T14:43:15;9.23;;;7.20;;
1775;SDS011;885;42.626;23.200;2022-07-04T14:45:43;8.10;;;7.50;;
1775;SDS011;885;42.626;23.200;2022-07-04T14:48:10;8.50;;;7.70;;
1775;SDS011;885;42.626;23.200;2022-07-04T14:50:39;8.20;;;7.60;;
1775;SDS011;885;42.626;23.200;2022-07-04T14:53:05;7.90;;;7.30;;
1775;SDS011;885;42.626;23.200;2022-07-04T14:55:32;7.97;;;7.27;;
1775;SDS011;885;42.626;23.200;2022-07-04T14:57:59;9.27;;;8.43;;
1775;SDS011;885;42.626;23.200;2022-07-04T15:00:26;8.00;;;7.40;;
1775;SDS011;885;42.626;23.200;2022-07-04T15:02:53;8.13;;;7.53;;
1775;SDS011;885;42.626;23.200;2022-07-04T15:05:20;8.90;;;8.03;;
1775;SDS011;885;42.626;23.200;2022-07-04T15:07:48;8.80;;;8.00;;
1775;SDS011;885;42.626;23.200;2022-07-04T15:10:15;8.67;;;7.87;;
1775;SDS011;885;42.626;23.200;2022-07-04T15:12:42;8.60;;;7.53;;
1775;SDS011;885;42.626;23.200;2022-07-04T15:15:09;10.97;;;7.60;;
1775;SDS011;885;42.626;23.200;2022-07-04T15:17:36;8.57;;;7.87;;
1775;SDS011;885;42.626;23.200;2022-07-04T15:20:04;7.77;;;7.10;;
1775;SDS011;885;42.626;23.200;2022-07-04T15:22:50;8.13;;;7.40;;
1775;SDS011;885;42.626;23.200;2022-07-04T15:25:34;8.77;;;7.97;;
1775;SDS011;885;42.626;23.200;2022-07-04T15:28:01;8.47;;;7.50;;
1775;SDS011;885;42.626;23.200;2022-07-04T15:30:31;8.40;;;7.70;;
1775;SDS011;885;42.626;23.200;2022-07-04T15:32:57;8.63;;;7.93;;
1775;SDS011;885;42.626;23.200;2022-07-04T15:35:24;8.70;;;7.90;;